Time;durP1;ratioP1;P1;durP2;ratioP2;P2;SDS_P1;SDS_P2;PMS_P1;PMS_P2;Temp;Humidity;BMP_temperature;BMP_pressure;BME280_temperature;BME280_humidity;BME280_pressure;Samples;Min_cycle;Max_cycle;Signal;HPM_P1;HPM_P2
2022/11/25 00:02:22;;;;;;;8.70;5.25;;;;;;;;;;5035552;28;20030;-79
2022/11/25 00:04:47;;;;;;;9.77;5.28;;;;;;;;;;5017664;28;20076;-78
2022/11/25 00:07:13;;;;;;;8.68;5.00;;;;;;;;;;5018053;28;20048;-78
2022/11/25 00:09:38;;;;;;;10.50;5.00;;;;;;;;;;5001788;28;20036;-79
2022/11/25 00:12:04;;;;;;;8.73;5.00;;;;;;;;;;5001200;28;20037;-78
2022/11/25 00:14:29;;;;;;;9.43;5.47;;;;;;;;;;5001603;28;20107;-78
2022/11/25 00:16:55;;;;;;;7.32;5.13;;;;;;;;;;5035711;28;20104;-78
2022/11/25 00:19:20;;;;;;;8.90;5.55;;;;;;;;;;4985260;28;20476;-79
2022/11/25 00:21:46;;;;;;;9.55;5.63;;;;;;;;;;5001133;28;20021;-78
2022/11/25 00:24:12;;;;;;;8.20;5.35;;;;;;;;;;5035777;28;20017;-78
2022/11/25 00:26:38;;;;;;;7.95;5.05;;;;;;;;;;5001472;28;20498;-78
2022/11/25 00:29:04;;;;;;;8.65;4.65;;;;;;;;;;5017715;28;20021;-78
2022/11/25 00:31:31;;;;;;;7.80;4.82;;;;;;;;;;5001040;28;20459;-78
2022/11/25 00:33:57;;;;;;;11.18;5.03;;;;;;;;;;5000827;28;20028;-77
2022/11/25 00:36:33;;;;;;;11.38;4.80;;;;;;;;;;4985091;28;20021;-78
2022/11/25 00:39:03;;;;;;;10.60;4.80;;;;;;;;;;5001597;28;20069;-79
2022/11/25 00:46:58;;;;;;;7.78;4.80;;;;;;;;;;5006023;28;20084;-78
2022/11/25 00:49:23;;;;;;;7.70;4.93;;;;;;;;;;5001277;28;20021;-78
2022/11/25 00:51:49;;;;;;;8.65;4.85;;;;;;;;;;4984333;28;20193;-78
2022/11/25 00:54:15;;;;;;;8.45;5.07;;;;;;;;;;5016871;28;20207;-78
2022/11/25 00:56:40;;;;;;;8.60;4.88;;;;;;;;;;5000951;28;20025;-78
2022/11/25 00:59:06;;;;;;;8.10;4.97;;;;;;;;;;5017426;28;20030;-78
2022/11/25 01:01:31;;;;;;;7.97;4.70;;;;;;;;;;5001052;28;20479;-79
2022/11/25 01:03:57;;;;;;;7.72;4.65;;;;;;;;;;5016308;28;20040;-78
2022/11/25 01:06:24;;;;;;;7.43;5.28;;;;;;;;;;5034909;28;20045;-79
2022/11/25 01:08:49;;;;;;;10.68;4.68;;;;;;;;;;5035018;28;20029;-79
2022/11/25 01:11:16;;;;;;;9.30;4.88;;;;;;;;;;4989950;28;20037;-78
2022/11/25 01:13:42;;;;;;;6.80;4.40;;;;;;;;;;5008157;28;20445;-79
2022/11/25 01:16:09;;;;;;;12.38;4.88;;;;;;;;;;5000098;28;20108;-78
2022/11/25 01:18:35;;;;;;;7.55;4.80;;;;;;;;;;5016961;28;20120;-79
2022/11/25 01:21:30;;;;;;;8.55;4.72;;;;;;;;;;5033462;28;20061;-79
2022/11/25 01:23:57;;;;;;;8.65;4.60;;;;;;;;;;5000523;28;20038;-78
2022/11/25 01:26:23;;;;;;;8.98;4.90;;;;;;;;;;5000580;28;20431;-78
2022/11/25 01:28:52;;;;;;;9.73;5.03;;;;;;;;;;5016492;28;20079;-78
2022/11/25 01:31:19;;;;;;;9.05;5.10;;;;;;;;;;5016198;28;20432;-78
2022/11/25 01:33:45;;;;;;;10.75;4.85;;;;;;;;;;4983907;28;20033;-78
2022/11/25 01:36:15;;;;;;;12.60;4.80;;;;;;;;;;5016411;28;20029;-78
2022/11/25 01:38:41;;;;;;;7.50;4.72;;;;;;;;;;5000254;28;20021;-78
2022/11/25 01:41:07;;;;;;;8.32;4.43;;;;;;;;;;5002393;28;20036;-79
2022/11/25 01:43:33;;;;;;;8.02;4.18;;;;;;;;;;5019604;28;20026;-78
2022/11/25 01:46:23;;;;;;;7.20;3.83;;;;;;;;;;5016047;28;20048;-77
2022/11/25 01:48:49;;;;;;;7.90;4.25;;;;;;;;;;5033810;28;20033;-78
2022/11/25 01:51:36;;;;;;;5.78;3.88;;;;;;;;;;4999968;28;20095;-78
2022/11/25 01:54:02;;;;;;;5.95;3.97;;;;;;;;;;5015939;28;20049;-79
2022/11/25 01:56:28;;;;;;;5.32;3.60;;;;;;;;;;5015980;28;20028;-78
2022/11/25 01:58:54;;;;;;;7.25;3.65;;;;;;;;;;4999771;28;20022;-78
2022/11/25 02:01:20;;;;;;;5.22;3.45;;;;;;;;;;5019918;28;20030;-79
2022/11/25 02:03:47;;;;;;;5.38;3.00;;;;;;;;;;5034794;28;20036;-79
2022/11/25 02:06:22;;;;;;;9.02;3.67;;;;;;;;;;5016503;28;20022;-79
2022/11/25 02:08:50;;;;;;;5.43;3.42;;;;;;;;;;5033504;28;20094;-78
2022/11/25 02:11:15;;;;;;;5.55;3.30;;;;;;;;;;4999747;28;20041;-78
2022/11/25 02:13:41;;;;;;;7.22;3.67;;;;;;;;;;5016294;28;20025;-78
2022/11/25 02:16:06;;;;;;;5.57;3.70;;;;;;;;;;5003571;28;20340;-80
2022/11/25 02:18:32;;;;;;;6.68;3.55;;;;;;;;;;5020022;28;20033;-77
2022/11/25 02:20:57;;;;;;;8.15;3.22;;;;;;;;;;5003994;28;20474;-79
2022/11/25 02:23:38;;;;;;;7.40;3.60;;;;;;;;;;5039703;28;20470;-77
2022/11/25 02:26:03;;;;;;;;;;;;;;;;;;5038011;28;20451;-78
2022/11/25 02:28:29;;;;;;;7.68;3.97;;;;;;;;;;5037118;28;19943;-78
2022/11/25 02:30:55;;;;;;;5.05;3.20;;;;;;;;;;5020317;28;20029;-78
2022/11/25 02:33:20;;;;;;;6.35;3.53;;;;;;;;;;5019747;28;20040;-79
2022/11/25 02:35:46;;;;;;;4.80;3.50;;;;;;;;;;5019972;28;20041;-78
2022/11/25 02:38:34;;;;;;;6.80;3.20;;;;;;;;;;5019418;28;20439;-79
2022/11/25 02:41:12;;;;;;;5.10;3.20;;;;;;;;;;5022178;28;20111;-78
2022/11/25 02:43:37;;;;;;;5.72;3.05;;;;;;;;;;5006299;28;20112;-78
2022/11/25 02:46:10;;;;;;;7.60;3.33;;;;;;;;;;5019454;28;20171;-79
2022/11/25 02:48:37;;;;;;;7.22;3.58;;;;;;;;;;5003531;28;20037;-79
2022/11/25 02:51:03;;;;;;;8.65;3.45;;;;;;;;;;5003419;28;20103;-78
2022/11/25 02:53:28;;;;;;;5.00;3.35;;;;;;;;;;5036847;28;20045;-77
2022/11/25 02:55:54;;;;;;;8.32;3.60;;;;;;;;;;5003173;28;20186;-78
2022/11/25 02:58:19;;;;;;;4.43;2.95;;;;;;;;;;5036626;28;20108;-78
2022/11/25 03:00:45;;;;;;;9.55;3.75;;;;;;;;;;5003078;28;20021;-78
2022/11/25 03:03:10;;;;;;;6.65;3.65;;;;;;;;;;5004013;28;20407;-77
2022/11/25 03:05:36;;;;;;;6.18;3.80;;;;;;;;;;5037437;28;20022;-80
2022/11/25 03:08:01;;;;;;;6.28;3.63;;;;;;;;;;5019328;28;20034;-78
2022/11/25 03:10:27;;;;;;;7.32;3.72;;;;;;;;;;5002512;28;20053;-77
2022/11/25 03:12:52;;;;;;;7.40;4.20;;;;;;;;;;5036135;28;20033;-79
2022/11/25 03:15:18;;;;;;;7.72;4.20;;;;;;;;;;5002622;28;20025;-78
2022/11/25 03:17:43;;;;;;;6.10;3.70;;;;;;;;;;4986352;28;20079;-79
2022/11/25 03:20:11;;;;;;;9.85;4.15;;;;;;;;;;5000444;28;20028;-78
2022/11/25 03:22:36;;;;;;;8.60;4.65;;;;;;;;;;5018808;28;20386;-78
2022/11/25 03:25:02;;;;;;;9.45;4.20;;;;;;;;;;5003163;28;20030;-79
2022/11/25 03:27:27;;;;;;;9.15;4.18;;;;;;;;;;5035454;28;20040;-79
2022/11/25 03:29:53;;;;;;;6.97;3.90;;;;;;;;;;5015924;28;20088;-78
2022/11/25 03:32:18;;;;;;;8.18;4.18;;;;;;;;;;5018527;28;20091;-78
2022/11/25 03:34:44;;;;;;;7.28;4.40;;;;;;;;;;5035167;28;20060;-78
2022/11/25 03:37:10;;;;;;;7.95;4.38;;;;;;;;;;5036812;28;20018;-77
2022/11/25 03:39:35;;;;;;;7.35;4.30;;;;;;;;;;5018971;28;20064;-78
2022/11/25 03:42:00;;;;;;;10.48;4.30;;;;;;;;;;5017875;28;20013;-78
2022/11/25 03:44:26;;;;;;;8.45;4.50;;;;;;;;;;5018128;28;20029;-77
2022/11/25 03:46:51;;;;;;;7.38;4.18;;;;;;;;;;5038498;28;20026;-78
2022/11/25 03:49:17;;;;;;;8.63;4.40;;;;;;;;;;4985291;28;20029;-78
2022/11/25 03:51:43;;;;;;;10.13;4.20;;;;;;;;;;5018128;28;20117;-78
2022/11/25 03:54:08;;;;;;;7.78;3.90;;;;;;;;;;5035779;28;20056;-78
2022/11/25 03:56:34;;;;;;;7.07;4.90;;;;;;;;;;5039221;28;20471;-77
2022/11/25 03:58:59;;;;;;;9.77;5.20;;;;;;;;;;5036369;28;20406;-78
2022/11/25 04:01:24;;;;;;;11.13;4.70;;;;;;;;;;5018094;28;20049;-78
2022/11/25 04:03:50;;;;;;;10.27;5.57;;;;;;;;;;4985625;28;20134;-78
2022/11/25 04:06:18;;;;;;;11.32;5.50;;;;;;;;;;5003033;28;20057;-77
2022/11/25 04:08:44;;;;;;;11.55;5.70;;;;;;;;;;4987463;28;20124;-77
2022/11/25 04:11:10;;;;;;;13.20;5.65;;;;;;;;;;5001730;28;20168;-78
2022/11/25 04:13:35;;;;;;;10.60;5.32;;;;;;;;;;5017977;28;20510;-78
2022/11/25 04:16:01;;;;;;;10.55;6.25;;;;;;;;;;5036737;28;20153;-78
2022/11/25 04:18:26;;;;;;;11.10;5.82;;;;;;;;;;5017866;28;20068;-78
2022/11/25 04:20:51;;;;;;;11.52;6.32;;;;;;;;;;5021681;28;20451;-78
2022/11/25 04:23:17;;;;;;;13.32;6.13;;;;;;;;;;5004284;28;20036;-76
2022/11/25 04:25:42;;;;;;;17.00;5.88;;;;;;;;;;5037210;28;20040;-78
2022/11/25 04:28:08;;;;;;;10.30;5.95;;;;;;;;;;5020817;28;20112;-78
2022/11/25 04:30:34;;;;;;;14.70;6.15;;;;;;;;;;4984877;28;20040;-78
2022/11/25 04:33:00;;;;;;;12.20;6.18;;;;;;;;;;5035076;28;20439;-77
2022/11/25 04:35:25;;;;;;;11.00;6.05;;;;;;;;;;5001286;28;20099;-77
2022/11/25 04:37:51;;;;;;;11.95;6.10;;;;;;;;;;5034465;28;20026;-78
2022/11/25 04:40:16;;;;;;;14.43;6.72;;;;;;;;;;5017132;28;20367;-78
2022/11/25 04:42:42;;;;;;;11.65;6.07;;;;;;;;;;5001213;28;20033;-78
2022/11/25 04:45:09;;;;;;;14.20;6.90;;;;;;;;;;5035045;28;20074;-78
2022/11/25 04:47:35;;;;;;;11.38;6.32;;;;;;;;;;5001483;28;20530;-77
2022/11/25 04:50:00;;;;;;;11.32;6.00;;;;;;;;;;5004318;28;20069;-77
2022/11/25 04:52:26;;;;;;;12.68;5.82;;;;;;;;;;5000191;28;20064;-78
2022/11/25 04:54:52;;;;;;;13.27;6.88;;;;;;;;;;5035106;28;20426;-79
2022/11/25 04:57:17;;;;;;;11.85;6.60;;;;;;;;;;5000592;28;20128;-77
2022/11/25 04:59:43;;;;;;;12.32;6.80;;;;;;;;;;5016971;28;20091;-79
2022/11/25 05:02:16;;;;;;;16.23;7.95;;;;;;;;;;5000692;28;20119;-78
2022/11/25 05:04:42;;;;;;;23.35;10.52;;;;;;;;;;5017219;28;20041;-78
2022/11/25 05:07:08;;;;;;;22.25;9.00;;;;;;;;;;5000579;28;20037;-79
2022/11/25 05:09:33;;;;;;;15.05;7.65;;;;;;;;;;4982928;28;20029;-81
2022/11/25 05:11:59;;;;;;;14.20;7.45;;;;;;;;;;5015552;28;20052;-81
2022/11/25 05:14:28;;;;;;;12.55;6.65;;;;;;;;;;5013148;28;20032;-81
2022/11/25 05:16:53;;;;;;;14.00;6.93;;;;;;;;;;5034336;28;20474;-82
2022/11/25 05:19:19;;;;;;;11.38;6.88;;;;;;;;;;5036140;28;20035;-82
2022/11/25 05:21:44;;;;;;;11.85;6.78;;;;;;;;;;5035411;28;20065;-81
2022/11/25 05:24:09;;;;;;;15.38;7.38;;;;;;;;;;5035968;28;20033;-82
2022/11/25 05:26:35;;;;;;;15.13;7.22;;;;;;;;;;5053942;28;20717;-83
2022/11/25 05:29:00;;;;;;;15.20;7.80;;;;;;;;;;5036659;28;20032;-81
2022/11/25 05:31:26;;;;;;;13.52;6.70;;;;;;;;;;5027709;28;20060;-82
2022/11/25 05:33:51;;;;;;;14.70;6.90;;;;;;;;;;5054346;28;20786;-82
2022/11/25 05:36:17;;;;;;;15.27;7.72;;;;;;;;;;5053675;28;20037;-81
2022/11/25 05:38:42;;;;;;;14.52;7.78;;;;;;;;;;5053557;28;20033;-81
2022/11/25 05:41:12;;;;;;;19.05;9.02;;;;;;;;;;5052472;28;20401;-82
2022/11/25 05:43:38;;;;;;;15.30;7.88;;;;;;;;;;5020797;28;20047;-81
2022/11/25 05:46:05;;;;;;;18.33;8.73;;;;;;;;;;5054093;28;20032;-81
2022/11/25 05:48:30;;;;;;;24.25;11.10;;;;;;;;;;5031431;28;20057;-80
2022/11/25 05:50:59;;;;;;;29.70;13.15;;;;;;;;;;5031581;28;20060;-81
2022/11/25 05:53:25;;;;;;;20.10;10.00;;;;;;;;;;5011447;28;20118;-81
2022/11/25 05:55:55;;;;;;;21.52;9.50;;;;;;;;;;5021180;28;20432;-81
2022/11/25 05:58:25;;;;;;;24.17;9.88;;;;;;;;;;5020379;28;20066;-81
2022/11/25 06:00:51;;;;;;;;;;;;;;;;;;5021759;28;20056;-82
2022/11/25 06:03:17;;;;;;;13.63;7.05;;;;;;;;;;5022373;28;19917;-79
2022/11/25 06:05:43;;;;;;;12.73;7.10;;;;;;;;;;5028960;28;20029;-78
2022/11/25 06:08:09;;;;;;;15.15;7.32;;;;;;;;;;5011026;28;20084;-79
2022/11/25 06:10:39;;;;;;;14.32;7.93;;;;;;;;;;5029292;28;20028;-81
2022/11/25 06:13:05;;;;;;;15.13;7.43;;;;;;;;;;5040031;28;20437;-81
2022/11/25 06:15:31;;;;;;;16.42;7.95;;;;;;;;;;5021756;28;20033;-81
2022/11/25 06:17:56;;;;;;;21.17;8.93;;;;;;;;;;5030388;28;20375;-81
2022/11/25 06:20:23;;;;;;;16.30;8.43;;;;;;;;;;5015499;28;20079;-81
2022/11/25 06:22:48;;;;;;;21.33;8.40;;;;;;;;;;5012843;28;20062;-83
2022/11/25 06:25:13;;;;;;;15.25;8.63;;;;;;;;;;5020920;28;20367;-83
2022/11/25 06:27:39;;;;;;;22.38;10.77;;;;;;;;;;5028657;28;20030;-82
2022/11/25 06:30:06;;;;;;;27.63;11.70;;;;;;;;;;5006112;28;20049;-80
2022/11/25 06:32:31;;;;;;;23.60;11.23;;;;;;;;;;5023051;28;20041;-84
2022/11/25 06:34:57;;;;;;;20.80;10.15;;;;;;;;;;5028976;28;20030;-84
2022/11/25 06:37:23;;;;;;;18.83;9.75;;;;;;;;;;5044398;28;20052;-81
2022/11/25 06:39:48;;;;;;;19.77;9.68;;;;;;;;;;5020357;28;20386;-82
2022/11/25 06:42:14;;;;;;;18.88;8.93;;;;;;;;;;5026169;28;20038;-79
2022/11/25 06:44:39;;;;;;;18.15;9.10;;;;;;;;;;5033092;28;20021;-80
2022/11/25 06:47:05;;;;;;;22.10;8.52;;;;;;;;;;5030121;28;20037;-78
2022/11/25 06:49:30;;;;;;;17.95;9.30;;;;;;;;;;5009168;28;20041;-78
2022/11/25 06:51:56;;;;;;;17.48;8.38;;;;;;;;;;5041386;28;20037;-78
2022/11/25 06:54:22;;;;;;;18.25;9.38;;;;;;;;;;5035400;28;20052;-80
2022/11/25 06:56:50;;;;;;;18.42;9.63;;;;;;;;;;5020673;28;20029;-78
2022/11/25 06:59:20;;;;;;;19.15;10.88;;;;;;;;;;5041633;28;20029;-80
2022/11/25 07:01:45;;;;;;;22.65;10.95;;;;;;;;;;5042226;28;20531;-79
2022/11/25 07:04:11;;;;;;;18.88;10.38;;;;;;;;;;5039998;28;20108;-80
2022/11/25 07:06:36;;;;;;;20.23;10.30;;;;;;;;;;5050564;28;20029;-79
2022/11/25 07:09:02;;;;;;;18.05;9.85;;;;;;;;;;5013784;28;20030;-81
2022/11/25 07:11:32;;;;;;;16.75;9.98;;;;;;;;;;5030164;28;20095;-79
2022/11/25 07:13:59;;;;;;;20.60;10.82;;;;;;;;;;5012715;28;20049;-79
2022/11/25 07:16:25;;;;;;;20.23;11.55;;;;;;;;;;5019300;28;20120;-79
2022/11/25 07:18:51;;;;;;;26.10;11.77;;;;;;;;;;5013055;28;20120;-79
2022/11/25 07:21:18;;;;;;;25.52;13.13;;;;;;;;;;5045074;28;20088;-80
2022/11/25 07:23:44;;;;;;;18.40;10.00;;;;;;;;;;5021907;28;20033;-79
2022/11/25 07:26:11;;;;;;;16.65;9.63;;;;;;;;;;5037470;28;20060;-80
2022/11/25 07:28:36;;;;;;;17.60;10.05;;;;;;;;;;5027382;28;20367;-79
2022/11/25 07:31:27;;;;;;;18.27;8.82;;;;;;;;;;5018558;28;20029;-79
2022/11/25 07:33:54;;;;;;;15.73;9.13;;;;;;;;;;5040667;28;20037;-80
2022/11/25 07:36:20;;;;;;;19.55;8.85;;;;;;;;;;5006693;28;20030;-81
2022/11/25 07:38:45;;;;;;;14.85;8.25;;;;;;;;;;5047548;28;20335;-81
2022/11/25 07:41:15;;;;;;;14.13;8.40;;;;;;;;;;5040900;28;20033;-83
2022/11/25 07:43:43;;;;;;;14.25;8.48;;;;;;;;;;5042935;28;20078;-81
2022/11/25 07:46:09;;;;;;;16.77;8.50;;;;;;;;;;5031689;28;20087;-81
2022/11/25 07:48:34;;;;;;;17.13;8.65;;;;;;;;;;5023808;28;20030;-80
2022/11/25 07:51:00;;;;;;;24.13;9.80;;;;;;;;;;5016322;28;20208;-78
2022/11/25 07:53:25;;;;;;;21.77;10.85;;;;;;;;;;5027601;28;20045;-79
2022/11/25 07:55:51;;;;;;;16.67;9.73;;;;;;;;;;5013018;28;20029;-78
2022/11/25 07:58:16;;;;;;;19.92;9.43;;;;;;;;;;5029427;28;20022;-77
2022/11/25 08:00:42;;;;;;;15.68;8.90;;;;;;;;;;5029781;28;20022;-77
2022/11/25 08:03:07;;;;;;;19.70;8.77;;;;;;;;;;5027932;28;20029;-80
2022/11/25 08:05:33;;;;;;;13.60;8.00;;;;;;;;;;5024342;28;20035;-79
2022/11/25 08:07:58;;;;;;;14.02;7.88;;;;;;;;;;5028601;28;20374;-80
2022/11/25 08:10:23;;;;;;;11.95;6.97;;;;;;;;;;5026913;28;20029;-80
2022/11/25 08:12:49;;;;;;;11.45;7.40;;;;;;;;;;5028026;28;20033;-79
2022/11/25 08:15:14;;;;;;;17.80;8.05;;;;;;;;;;5029432;28;20043;-80
2022/11/25 08:17:40;;;;;;;12.98;7.65;;;;;;;;;;5031251;28;20067;-76
2022/11/25 08:20:06;;;;;;;14.80;7.40;;;;;;;;;;5031148;28;20664;-76
2022/11/25 08:22:32;;;;;;;22.40;12.10;;;;;;;;;;5047142;28;20079;-79
2022/11/25 08:24:57;;;;;;;12.80;7.57;;;;;;;;;;5018315;28;20033;-79
2022/11/25 08:27:23;;;;;;;17.20;7.70;;;;;;;;;;5055091;28;20372;-81
2022/11/25 08:29:48;;;;;;;18.17;8.05;;;;;;;;;;5022502;28;20117;-78
2022/11/25 08:32:14;;;;;;;17.40;7.85;;;;;;;;;;5049725;28;20041;-80
2022/11/25 08:34:39;;;;;;;13.75;7.75;;;;;;;;;;5051087;28;20029;-80
2022/11/25 08:37:05;;;;;;;17.02;8.50;;;;;;;;;;5014634;28;20033;-77
2022/11/25 08:39:30;;;;;;;20.55;9.93;;;;;;;;;;5013426;28;20047;-80
2022/11/25 08:41:56;;;;;;;18.70;9.40;;;;;;;;;;4994586;28;20073;-80
2022/11/25 08:44:21;;;;;;;15.93;8.60;;;;;;;;;;4994489;28;20447;-81
2022/11/25 08:46:53;;;;;;;18.73;9.30;;;;;;;;;;5015579;28;20049;-81
2022/11/25 08:49:21;;;;;;;16.48;8.02;;;;;;;;;;5014464;28;20109;-80
2022/11/25 08:51:47;;;;;;;16.17;7.40;;;;;;;;;;5011900;28;20036;-80
2022/11/25 08:54:46;;;;;;;18.25;7.53;;;;;;;;;;4997311;28;20065;-81
2022/11/25 08:57:18;;;;;;;22.20;10.20;;;;;;;;;;5011386;28;20207;-79
2022/11/25 08:59:44;;;;;;;18.20;9.05;;;;;;;;;;4995130;28;20046;-79
2022/11/25 09:02:11;;;;;;;20.23;10.45;;;;;;;;;;5006446;28;20040;-80
2022/11/25 09:04:36;;;;;;;18.23;10.07;;;;;;;;;;5009757;28;20518;-78
2022/11/25 09:07:03;;;;;;;14.48;8.40;;;;;;;;;;5035620;28;20029;-79
2022/11/25 09:09:28;;;;;;;15.88;7.80;;;;;;;;;;5012732;28;20029;-78
2022/11/25 09:11:54;;;;;;;15.02;7.53;;;;;;;;;;5023529;28;20061;-81
2022/11/25 09:14:19;;;;;;;14.10;7.50;;;;;;;;;;5016222;28;20030;-78
2022/11/25 09:16:45;;;;;;;15.95;7.63;;;;;;;;;;4996086;28;20446;-79
2022/11/25 09:19:10;;;;;;;18.92;10.23;;;;;;;;;;5013290;28;20089;-79
2022/11/25 09:21:48;;;;;;;18.98;8.43;;;;;;;;;;5075325;22;20077;-82
2022/11/25 09:24:14;;;;;;;14.98;7.88;;;;;;;;;;5076709;28;20380;-83
2022/11/25 09:26:48;;;;;;;16.20;8.38;;;;;;;;;;5119938;28;20020;-82
2022/11/25 09:29:14;;;;;;;14.75;7.45;;;;;;;;;;5094370;28;20073;-79
2022/11/25 09:31:39;;;;;;;15.10;7.60;;;;;;;;;;5113514;28;20035;-80
2022/11/25 09:34:20;;;;;;;18.67;8.00;;;;;;;;;;5091797;28;20043;-80
2022/11/25 09:36:55;;;;;;;15.90;7.85;;;;;;;;;;5078824;28;20039;-82
2022/11/25 09:39:28;;;;;;;20.20;9.38;;;;;;;;;;5114554;28;20027;-81
2022/11/25 09:46:44;;;;;;;15.38;8.27;;;;;;;;;;5093148;22;20559;-82
2022/11/25 09:49:39;;;;;;;19.25;9.10;;;;;;;;;;5005465;28;20057;-81
2022/11/25 09:52:30;;;;;;;17.92;9.77;;;;;;;;;;4997366;28;20030;-80
2022/11/25 09:55:16;;;;;;;19.50;8.30;;;;;;;;;;5056184;28;20577;-80
2022/11/25 09:57:58;;;;;;;14.18;8.23;;;;;;;;;;5073502;28;20055;-81
2022/11/25 10:00:25;;;;;;;13.40;7.68;;;;;;;;;;5076034;28;20050;-81
2022/11/25 10:03:00;;;;;;;13.07;7.35;;;;;;;;;;5057038;28;20031;-81
2022/11/25 10:06:05;;;;;;;14.60;7.15;;;;;;;;;;5064292;28;20032;-80
2022/11/25 10:08:38;;;;;;;13.85;7.88;;;;;;;;;;5055602;28;20547;-82
2022/11/25 10:11:29;;;;;;;12.43;7.30;;;;;;;;;;5075965;28;20028;-81
2022/11/25 10:14:14;;;;;;;14.68;8.20;;;;;;;;;;5075187;28;20354;-81
2022/11/25 10:16:51;;;;;;;22.30;9.65;;;;;;;;;;5037917;28;20414;-82
2022/11/25 10:19:42;;;;;;;13.55;7.38;;;;;;;;;;5039807;28;20037;-81
2022/11/25 10:22:26;;;;;;;17.40;7.50;;;;;;;;;;5057752;28;20040;-82
2022/11/25 10:24:54;;;;;;;15.65;8.02;;;;;;;;;;5078550;28;20032;-81
2022/11/25 10:27:45;;;;;;;14.20;6.97;;;;;;;;;;5056684;28;20055;-82
2022/11/25 10:31:01;;;;;;;20.00;8.02;;;;;;;;;;5040773;28;20074;-81
2022/11/25 10:33:31;;;;;;;15.95;6.90;;;;;;;;;;5048897;28;20036;-82
2022/11/25 10:36:29;;;;;;;14.57;7.00;;;;;;;;;;5056923;28;20065;-80
2022/11/25 10:39:18;;;;;;;13.52;7.00;;;;;;;;;;5039090;28;20036;-81
2022/11/25 10:41:58;;;;;;;9.60;6.15;;;;;;;;;;5041884;28;20543;-78
2022/11/25 10:44:29;;;;;;;13.50;8.03;;;;;;;;;;5040321;28;20032;-79
2022/11/25 10:47:23;;;;;;;13.75;7.28;;;;;;;;;;5053707;28;20295;-80
2022/11/25 10:50:10;;;;;;;15.70;7.60;;;;;;;;;;5041809;28;20037;-81
2022/11/25 10:53:13;;;;;;;13.00;7.22;;;;;;;;;;5069704;28;20126;-81
2022/11/25 10:55:38;;;;;;;15.82;7.53;;;;;;;;;;5094960;28;20029;-80
2022/11/25 10:58:26;;;;;;;12.73;6.75;;;;;;;;;;5096109;28;20020;-79
2022/11/25 11:01:03;;;;;;;14.05;7.65;;;;;;;;;;5076361;28;20050;-79
2022/11/25 11:03:28;;;;;;;16.02;7.35;;;;;;;;;;5098021;28;20097;-80
2022/11/25 11:05:54;;;;;;;14.13;6.85;;;;;;;;;;5077464;28;20167;-80
2022/11/25 11:08:27;;;;;;;13.70;6.68;;;;;;;;;;5077177;28;20024;-83
2022/11/25 11:11:08;;;;;;;13.50;6.70;;;;;;;;;;5095583;28;20028;-80
2022/11/25 11:13:33;;;;;;;11.55;6.38;;;;;;;;;;5077925;28;20036;-81
2022/11/25 11:15:59;;;;;;;13.27;7.38;;;;;;;;;;5095611;28;20389;-80
2022/11/25 11:18:36;;;;;;;17.55;7.25;;;;;;;;;;5096167;28;20024;-81
2022/11/25 11:21:01;;;;;;;11.77;6.07;;;;;;;;;;5096939;28;20024;-81
2022/11/25 11:23:27;;;;;;;15.40;7.10;;;;;;;;;;5080255;28;20084;-83
2022/11/25 11:26:01;;;;;;;10.85;6.57;;;;;;;;;;5045812;28;20464;-80
2022/11/25 11:28:37;;;;;;;12.70;6.80;;;;;;;;;;5097154;28;20027;-79
2022/11/25 11:31:05;;;;;;;11.98;6.38;;;;;;;;;;5062305;28;20028;-81
2022/11/25 11:33:42;;;;;;;14.55;6.15;;;;;;;;;;5062060;28;20495;-80
2022/11/25 11:36:17;;;;;;;11.63;6.20;;;;;;;;;;5062720;28;20028;-78
2022/11/25 11:38:52;;;;;;;16.00;7.53;;;;;;;;;;5073676;28;20091;-80
2022/11/25 11:41:30;;;;;;;14.02;7.47;;;;;;;;;;5086403;28;20128;-81
2022/11/25 11:43:59;;;;;;;12.68;6.60;;;;;;;;;;5035234;28;20039;-79
2022/11/25 11:46:45;;;;;;;12.93;6.95;;;;;;;;;;5065189;28;20056;-81
2022/11/25 11:49:17;;;;;;;12.57;7.03;;;;;;;;;;5033292;28;20128;-79
2022/11/25 11:52:00;;;;;;;12.73;6.95;;;;;;;;;;5051666;28;20029;-81
2022/11/25 11:54:26;;;;;;;11.85;6.72;;;;;;;;;;5052064;28;20036;-80
2022/11/25 11:57:06;;;;;;;13.90;7.78;;;;;;;;;;5036412;28;20383;-79
2022/11/25 11:59:47;;;;;;;12.15;6.70;;;;;;;;;;5036069;28;20470;-80
2022/11/25 12:02:19;;;;;;;12.45;6.90;;;;;;;;;;5023532;28;20032;-80
2022/11/25 12:05:04;;;;;;;13.27;7.03;;;;;;;;;;5035488;28;20132;-80
2022/11/25 12:08:00;;;;;;;10.25;6.10;;;;;;;;;;5055120;28;20072;-81
2022/11/25 12:10:28;;;;;;;12.90;6.55;;;;;;;;;;5056089;28;20437;-81
2022/11/25 12:13:05;;;;;;;9.85;6.18;;;;;;;;;;5037099;28;20029;-79
2022/11/25 12:15:38;;;;;;;14.30;6.63;;;;;;;;;;5052729;28;20029;-80
2022/11/25 12:18:30;;;;;;;11.00;6.13;;;;;;;;;;5037511;28;20032;-83
2022/11/25 12:21:04;;;;;;;10.25;6.63;;;;;;;;;;5050151;28;20447;-80
2022/11/25 12:24:13;;;;;;;17.70;6.05;;;;;;;;;;5041435;28;20123;-78
2022/11/25 12:26:38;;;;;;;10.68;6.47;;;;;;;;;;5029588;28;20036;-80
2022/11/25 12:29:11;;;;;;;14.70;6.78;;;;;;;;;;5063717;28;20089;-80
2022/11/25 12:31:38;;;;;;;13.30;7.20;;;;;;;;;;5038866;28;20071;-80
2022/11/25 12:34:11;;;;;;;13.93;7.10;;;;;;;;;;5041352;28;20123;-78
2022/11/25 12:36:40;;;;;;;11.30;6.75;;;;;;;;;;5032704;28;20433;-78
2022/11/25 12:39:35;;;;;;;13.27;6.68;;;;;;;;;;5022068;28;20107;-80
2022/11/25 12:42:03;;;;;;;16.05;6.13;;;;;;;;;;5031395;28;20037;-78
2022/11/25 12:44:50;;;;;;;11.43;6.35;;;;;;;;;;5001623;28;20052;-78
2022/11/25 12:47:16;;;;;;;10.68;6.70;;;;;;;;;;5016185;28;20084;-77
2022/11/25 12:49:45;;;;;;;11.77;7.05;;;;;;;;;;5016020;28;20427;-79
2022/11/25 12:52:20;;;;;;;11.75;6.80;;;;;;;;;;5016230;28;20051;-80
2022/11/25 12:55:07;;;;;;;15.00;7.13;;;;;;;;;;5033457;28;20051;-80
2022/11/25 12:57:52;;;;;;;15.45;7.93;;;;;;;;;;5034067;28;20055;-83
2022/11/25 13:00:24;;;;;;;15.25;6.90;;;;;;;;;;5053705;28;20024;-79
2022/11/25 13:03:14;;;;;;;12.90;6.78;;;;;;;;;;5019123;28;20094;-79
2022/11/25 13:05:48;;;;;;;11.05;6.32;;;;;;;;;;5034922;28;20213;-81
2022/11/25 13:08:23;;;;;;;16.35;7.40;;;;;;;;;;5053733;28;20366;-79
2022/11/25 13:10:53;;;;;;;16.52;8.63;;;;;;;;;;5036283;28;20033;-78
2022/11/25 13:13:21;;;;;;;13.40;7.68;;;;;;;;;;5036954;28;20032;-79
2022/11/25 13:15:47;;;;;;;16.20;6.55;;;;;;;;;;5055063;28;20033;-79
2022/11/25 13:18:17;;;;;;;12.77;7.32;;;;;;;;;;5006842;28;20033;-78
2022/11/25 13:20:51;;;;;;;12.32;6.90;;;;;;;;;;5004410;28;20021;-80
2022/11/25 13:23:17;;;;;;;12.82;6.63;;;;;;;;;;5020208;28;20465;-78
2022/11/25 13:25:44;;;;;;;16.10;7.88;;;;;;;;;;5054362;28;20029;-79
2022/11/25 13:28:32;;;;;;;18.52;9.02;;;;;;;;;;5020240;28;20029;-78
2022/11/25 13:31:13;;;;;;;11.93;7.00;;;;;;;;;;5037389;28;20044;-78
2022/11/25 13:33:41;;;;;;;13.68;7.07;;;;;;;;;;5036521;28;20040;-78
2022/11/25 13:36:17;;;;;;;13.32;7.85;;;;;;;;;;5053957;28;20044;-77
2022/11/25 13:38:49;;;;;;;14.40;8.30;;;;;;;;;;5006532;28;20029;-79
2022/11/25 13:41:14;;;;;;;13.27;7.45;;;;;;;;;;5036792;28;20029;-83
2022/11/25 13:43:52;;;;;;;16.38;8.20;;;;;;;;;;5036390;28;20029;-83
2022/11/25 13:46:51;;;;;;;13.00;7.82;;;;;;;;;;5054072;28;20064;-78
2022/11/25 13:49:22;;;;;;;15.82;8.38;;;;;;;;;;5009254;28;20041;-78
2022/11/25 13:51:53;;;;;;;15.70;8.50;;;;;;;;;;5004402;28;20182;-79
2022/11/25 13:54:22;;;;;;;18.95;9.30;;;;;;;;;;5003624;28;20040;-79
2022/11/25 13:57:17;;;;;;;13.10;7.72;;;;;;;;;;5003840;28;20465;-77
2022/11/25 13:59:42;;;;;;;16.40;8.07;;;;;;;;;;5002117;28;20131;-80
2022/11/25 14:02:26;;;;;;;14.10;7.72;;;;;;;;;;5037581;28;20072;-81
2022/11/25 14:04:59;;;;;;;22.98;10.68;;;;;;;;;;5053358;28;20382;-81
2022/11/25 14:07:29;;;;;;;15.57;8.57;;;;;;;;;;5036312;28;20029;-79
2022/11/25 14:09:59;;;;;;;20.50;11.63;;;;;;;;;;5036344;28;20738;-80
2022/11/25 14:12:39;;;;;;;16.80;9.30;;;;;;;;;;5040224;28;20120;-79
2022/11/25 14:15:19;;;;;;;24.52;11.90;;;;;;;;;;5039645;28;20036;-80
2022/11/25 14:18:13;;;;;;;18.33;10.77;;;;;;;;;;5041082;28;20025;-79
2022/11/25 14:20:50;;;;;;;16.67;9.75;;;;;;;;;;5044223;28;20029;-81
2022/11/25 14:23:27;;;;;;;17.58;8.35;;;;;;;;;;5024028;28;20039;-83
2022/11/25 14:25:55;;;;;;;14.05;8.10;;;;;;;;;;5039501;28;20451;-81
2022/11/25 14:28:23;;;;;;;16.63;8.80;;;;;;;;;;5023166;28;20120;-81
2022/11/25 14:30:50;;;;;;;13.48;7.57;;;;;;;;;;5023282;28;20035;-83
2022/11/25 14:33:17;;;;;;;13.23;8.18;;;;;;;;;;5006524;28;20439;-80
2022/11/25 14:35:49;;;;;;;16.02;9.02;;;;;;;;;;5007012;28;20461;-79
2022/11/25 14:38:22;;;;;;;20.02;11.32;;;;;;;;;;5025393;28;20025;-78
2022/11/25 14:41:14;;;;;;;19.75;10.18;;;;;;;;;;5057779;28;20377;-79
2022/11/25 14:43:41;;;;;;;19.35;9.20;;;;;;;;;;5025997;28;20045;-78
2022/11/25 14:46:15;;;;;;;19.10;9.15;;;;;;;;;;5023381;28;20374;-80
2022/11/25 14:48:41;;;;;;;23.52;9.38;;;;;;;;;;5021973;28;20514;-79
2022/11/25 14:51:09;;;;;;;22.45;9.43;;;;;;;;;;5023377;28;20032;-79
2022/11/25 14:53:43;;;;;;;15.68;9.77;;;;;;;;;;5022656;28;20372;-78
2022/11/25 14:56:09;;;;;;;63.38;29.85;;;;;;;;;;5023121;28;20029;-78
2022/11/25 14:58:44;;;;;;;23.27;10.73;;;;;;;;;;5041679;28;20036;-80
2022/11/25 15:01:49;;;;;;;25.17;12.23;;;;;;;;;;5023579;28;20032;-79
2022/11/25 15:04:17;;;;;;;26.20;12.07;;;;;;;;;;5019558;28;20041;-79